Terminal Aerodrome Forecast
Issued by NWS Wilmington, OH

Current Version | Previous Version | Text Only | Print | Product List | Glossary On
Versions: 1 2 3 4 5 6 7 8 9 10 11 12 13 14 15 16 17 18 19 20 21 22
000
FTUS41 KILN 311700
TAFCVG
TAF
KCVG 311740Z 3118/0124 31012KT P6SM -SHRA SCT015 OVC025
     FM312200 32014G22KT P6SM SCT025 OVC040
     FM010100 32016G24KT P6SM -SHRA SCT010 OVC022
     FM010400 33018G26KT 5SM -RASN BR OVC010
     FM010700 34018G26KT P6SM VCSH OVC012
     FM011400 35018G26KT P6SM OVC022
     FM012000 34016G24KT P6SM BKN035=

USA.gov is the U.S. government's official web portal to all federal, state and local government web resources and services.